sensor_id;sensor_type;location;lat;lon;timestamp;temperature;humidity
34833;DHT22;55941;50.800;4.342;2022-11-30T00:00:51;6.80;99.90
34833;DHT22;55941;50.800;4.342;2022-11-30T00:03:17;6.70;99.90
34833;DHT22;55941;50.800;4.342;2022-11-30T00:05:44;6.70;99.90
34833;DHT22;55941;50.800;4.342;2022-11-30T00:08:09;6.70;99.90
34833;DHT22;55941;50.800;4.342;2022-11-30T00:10:38;6.80;99.90
34833;DHT22;55941;50.800;4.342;2022-11-30T00:13:05;6.70;99.90
34833;DHT22;55941;50.800;4.342;2022-11-30T00:15:32;6.90;99.90
34833;DHT22;55941;50.800;4.342;2022-11-30T00:17:58;6.80;99.90
34833;DHT22;55941;50.800;4.342;2022-11-30T00:20:26;6.70;99.90
34833;DHT22;55941;50.800;4.342;2022-11-30T00:22:55;6.70;99.90
34833;DHT22;55941;50.800;4.342;2022-11-30T00:25:22;6.80;99.90
34833;DHT22;55941;50.800;4.342;2022-11-30T00:27:49;6.80;99.90
34833;DHT22;55941;50.800;4.342;2022-11-30T00:30:15;7.00;99.90
34833;DHT22;55941;50.800;4.342;2022-11-30T00:32:40;6.80;99.90
34833;DHT22;55941;50.800;4.342;2022-11-30T00:35:06;6.80;99.90
34833;DHT22;55941;50.800;4.342;2022-11-30T00:37:33;6.70;99.90
34833;DHT22;55941;50.800;4.342;2022-11-30T00:39:59;6.80;99.90
34833;DHT22;55941;50.800;4.342;2022-11-30T00:42:25;6.80;99.90
34833;DHT22;55941;50.800;4.342;2022-11-30T00:44:50;6.80;99.90
34833;DHT22;55941;50.800;4.342;2022-11-30T00:47:16;6.70;99.90
34833;DHT22;55941;50.800;4.342;2022-11-30T00:49:42;6.70;99.90
34833;DHT22;55941;50.800;4.342;2022-11-30T00:52:07;6.70;99.90
34833;DHT22;55941;50.800;4.342;2022-11-30T00:54:33;6.60;99.90
34833;DHT22;55941;50.800;4.342;2022-11-30T00:56:59;6.70;99.90
34833;DHT22;55941;50.800;4.342;2022-11-30T00:59:24;6.70;99.90
34833;DHT22;55941;50.800;4.342;2022-11-30T01:01:52;6.80;99.90
34833;DHT22;55941;50.800;4.342;2022-11-30T01:04:18;6.80;99.90
34833;DHT22;55941;50.800;4.342;2022-11-30T01:06:44;6.80;99.90
34833;DHT22;55941;50.800;4.342;2022-11-30T01:09:10;6.80;99.90
34833;DHT22;55941;50.800;4.342;2022-11-30T01:11:35;6.80;99.90
34833;DHT22;55941;50.800;4.342;2022-11-30T01:14:01;6.70;99.90
34833;DHT22;55941;50.800;4.342;2022-11-30T01:16:31;6.60;99.90
34833;DHT22;55941;50.800;4.342;2022-11-30T01:18:57;6.70;99.90
34833;DHT22;55941;50.800;4.342;2022-11-30T01:21:25;6.60;99.90
34833;DHT22;55941;50.800;4.342;2022-11-30T01:23:51;6.70;99.90
34833;DHT22;55941;50.800;4.342;2022-11-30T01:26:17;6.70;99.90
34833;DHT22;55941;50.800;4.342;2022-11-30T01:28:50;6.70;99.90
34833;DHT22;55941;50.800;4.342;2022-11-30T01:31:16;6.80;99.90
34833;DHT22;55941;50.800;4.342;2022-11-30T01:33:48;6.60;99.90
34833;DHT22;55941;50.800;4.342;2022-11-30T01:36:16;6.70;99.90
34833;DHT22;55941;50.800;4.342;2022-11-30T01:38:55;6.70;99.90
34833;DHT22;55941;50.800;4.342;2022-11-30T01:41:24;6.60;99.90
34833;DHT22;55941;50.800;4.342;2022-11-30T01:43:57;6.80;99.90
34833;DHT22;55941;50.800;4.342;2022-11-30T01:46:24;6.70;99.90
34833;DHT22;55941;50.800;4.342;2022-11-30T01:48:58;6.70;99.90
34833;DHT22;55941;50.800;4.342;2022-11-30T01:51:29;6.90;99.90
34833;DHT22;55941;50.800;4.342;2022-11-30T01:53:55;6.90;99.90
34833;DHT22;55941;50.800;4.342;2022-11-30T01:56:21;6.90;99.90
34833;DHT22;55941;50.800;4.342;2022-11-30T01:58:48;6.80;99.90
34833;DHT22;55941;50.800;4.342;2022-11-30T02:01:14;6.70;99.90
34833;DHT22;55941;50.800;4.342;2022-11-30T02:03:55;6.80;99.90
34833;DHT22;55941;50.800;4.342;2022-11-30T02:06:24;6.90;99.90
34833;DHT22;55941;50.800;4.342;2022-11-30T02:08:51;6.80;99.90
34833;DHT22;55941;50.800;4.342;2022-11-30T02:11:17;6.80;99.90
34833;DHT22;55941;50.800;4.342;2022-11-30T02:16:59;6.80;99.90
34833;DHT22;55941;50.800;4.342;2022-11-30T02:22:03;6.90;99.90
34833;DHT22;55941;50.800;4.342;2022-11-30T02:30:22;6.80;99.90
34833;DHT22;55941;50.800;4.342;2022-11-30T02:32:51;6.80;99.90
34833;DHT22;55941;50.800;4.342;2022-11-30T02:35:21;6.80;99.90
34833;DHT22;55941;50.800;4.342;2022-11-30T02:37:51;6.90;99.90
34833;DHT22;55941;50.800;4.342;2022-11-30T02:40:18;6.90;99.90
34833;DHT22;55941;50.800;4.342;2022-11-30T02:42:45;7.00;99.90
34833;DHT22;55941;50.800;4.342;2022-11-30T02:45:11;6.90;99.90
34833;DHT22;55941;50.800;4.342;2022-11-30T02:50:20;6.90;99.90
34833;DHT22;55941;50.800;4.342;2022-11-30T02:52:50;6.90;99.90
34833;DHT22;55941;50.800;4.342;2022-11-30T02:55:18;6.80;99.90
34833;DHT22;55941;50.800;4.342;2022-11-30T02:57:44;6.60;99.90
34833;DHT22;55941;50.800;4.342;2022-11-30T03:00:10;6.70;99.90
34833;DHT22;55941;50.800;4.342;2022-11-30T03:02:37;6.80;99.90
34833;DHT22;55941;50.800;4.342;2022-11-30T03:05:03;6.90;99.90
34833;DHT22;55941;50.800;4.342;2022-11-30T03:07:29;7.00;99.90
34833;DHT22;55941;50.800;4.342;2022-11-30T03:09:56;7.00;99.90
34833;DHT22;55941;50.800;4.342;2022-11-30T03:12:22;7.00;99.90
34833;DHT22;55941;50.800;4.342;2022-11-30T03:14:47;7.10;99.90
34833;DHT22;55941;50.800;4.342;2022-11-30T03:17:13;7.00;99.90
34833;DHT22;55941;50.800;4.342;2022-11-30T03:19:39;7.00;99.90
34833;DHT22;55941;50.800;4.342;2022-11-30T03:22:04;7.10;99.90
34833;DHT22;55941;50.800;4.342;2022-11-30T03:24:30;7.10;99.90
34833;DHT22;55941;50.800;4.342;2022-11-30T03:26:56;7.30;99.90
34833;DHT22;55941;50.800;4.342;2022-11-30T03:29:22;7.10;99.90
34833;DHT22;55941;50.800;4.342;2022-11-30T03:31:47;7.10;99.90
34833;DHT22;55941;50.800;4.342;2022-11-30T03:34:14;7.10;99.90
34833;DHT22;55941;50.800;4.342;2022-11-30T03:36:40;7.00;99.90
34833;DHT22;55941;50.800;4.342;2022-11-30T03:39:05;7.00;99.90
34833;DHT22;55941;50.800;4.342;2022-11-30T03:41:31;6.90;99.90
34833;DHT22;55941;50.800;4.342;2022-11-30T03:43:57;7.20;99.90
34833;DHT22;55941;50.800;4.342;2022-11-30T03:46:22;7.10;99.90
34833;DHT22;55941;50.800;4.342;2022-11-30T03:48:49;7.00;99.90
34833;DHT22;55941;50.800;4.342;2022-11-30T03:51:14;7.00;99.90
34833;DHT22;55941;50.800;4.342;2022-11-30T03:53:40;6.90;99.90
34833;DHT22;55941;50.800;4.342;2022-11-30T03:56:08;6.70;99.90
34833;DHT22;55941;50.800;4.342;2022-11-30T03:58:35;6.70;99.90
34833;DHT22;55941;50.800;4.342;2022-11-30T04:01:09;6.70;99.90
34833;DHT22;55941;50.800;4.342;2022-11-30T04:03:35;6.90;99.90
34833;DHT22;55941;50.800;4.342;2022-11-30T04:06:01;6.90;99.90
34833;DHT22;55941;50.800;4.342;2022-11-30T04:08:28;6.80;99.90
34833;DHT22;55941;50.800;4.342;2022-11-30T04:10:55;6.90;99.90
34833;DHT22;55941;50.800;4.342;2022-11-30T04:13:22;6.80;99.90
34833;DHT22;55941;50.800;4.342;2022-11-30T04:15:49;6.70;99.90
34833;DHT22;55941;50.800;4.342;2022-11-30T04:18:16;6.80;99.90
34833;DHT22;55941;50.800;4.342;2022-11-30T04:20:42;6.90;99.90
34833;DHT22;55941;50.800;4.342;2022-11-30T04:23:08;6.70;99.90
34833;DHT22;55941;50.800;4.342;2022-11-30T04:25:36;6.70;99.90
34833;DHT22;55941;50.800;4.342;2022-11-30T04:28:02;6.70;99.90
34833;DHT22;55941;50.800;4.342;2022-11-30T04:30:28;6.70;99.90
34833;DHT22;55941;50.800;4.342;2022-11-30T04:32:55;6.80;99.90
34833;DHT22;55941;50.800;4.342;2022-11-30T04:35:20;6.70;99.90
34833;DHT22;55941;50.800;4.342;2022-11-30T04:37:46;6.60;99.90
34833;DHT22;55941;50.800;4.342;2022-11-30T04:40:12;6.70;99.90
34833;DHT22;55941;50.800;4.342;2022-11-30T04:42:37;6.70;99.90
34833;DHT22;55941;50.800;4.342;2022-11-30T04:45:03;6.80;99.90
34833;DHT22;55941;50.800;4.342;2022-11-30T04:47:29;6.70;99.90
34833;DHT22;55941;50.800;4.342;2022-11-30T04:49:55;6.80;99.90
34833;DHT22;55941;50.800;4.342;2022-11-30T04:52:20;6.70;99.90
34833;DHT22;55941;50.800;4.342;2022-11-30T04:54:46;6.90;99.90
34833;DHT22;55941;50.800;4.342;2022-11-30T04:57:12;6.80;99.90
34833;DHT22;55941;50.800;4.342;2022-11-30T04:59:37;6.60;99.90
34833;DHT22;55941;50.800;4.342;2022-11-30T05:02:03;6.70;99.90
34833;DHT22;55941;50.800;4.342;2022-11-30T05:04:30;6.70;99.90
34833;DHT22;55941;50.800;4.342;2022-11-30T05:06:55;6.70;99.90
34833;DHT22;55941;50.800;4.342;2022-11-30T05:09:21;6.60;99.90
34833;DHT22;55941;50.800;4.342;2022-11-30T05:11:47;6.60;99.90
34833;DHT22;55941;50.800;4.342;2022-11-30T05:14:13;6.60;99.90
34833;DHT22;55941;50.800;4.342;2022-11-30T05:16:39;6.60;99.90
34833;DHT22;55941;50.800;4.342;2022-11-30T05:19:04;6.60;99.90
34833;DHT22;55941;50.800;4.342;2022-11-30T05:21:31;6.60;99.90
34833;DHT22;55941;50.800;4.342;2022-11-30T05:23:57;6.70;99.90
34833;DHT22;55941;50.800;4.342;2022-11-30T05:26:22;6.60;99.90
34833;DHT22;55941;50.800;4.342;2022-11-30T05:28:48;6.70;99.90
34833;DHT22;55941;50.800;4.342;2022-11-30T05:31:14;6.80;99.90
34833;DHT22;55941;50.800;4.342;2022-11-30T05:33:40;6.70;99.90
34833;DHT22;55941;50.800;4.342;2022-11-30T05:36:06;6.70;99.90
34833;DHT22;55941;50.800;4.342;2022-11-30T05:38:32;6.80;99.90
34833;DHT22;55941;50.800;4.342;2022-11-30T05:40:59;6.90;99.90
34833;DHT22;55941;50.800;4.342;2022-11-30T05:43:27;6.70;99.90
34833;DHT22;55941;50.800;4.342;2022-11-30T05:46:01;6.50;99.90
34833;DHT22;55941;50.800;4.342;2022-11-30T05:48:27;6.60;99.90
34833;DHT22;55941;50.800;4.342;2022-11-30T05:50:54;6.50;99.90
34833;DHT22;55941;50.800;4.342;2022-11-30T05:53:20;6.50;99.90
34833;DHT22;55941;50.800;4.342;2022-11-30T05:55:47;6.60;99.90
34833;DHT22;55941;50.800;4.342;2022-11-30T05:58:13;6.40;99.90
34833;DHT22;55941;50.800;4.342;2022-11-30T06:00:38;6.50;99.90
34833;DHT22;55941;50.800;4.342;2022-11-30T06:03:04;6.60;99.90
34833;DHT22;55941;50.800;4.342;2022-11-30T06:05:33;6.90;99.90
34833;DHT22;55941;50.800;4.342;2022-11-30T06:08:00;6.80;99.90
34833;DHT22;55941;50.800;4.342;2022-11-30T06:10:26;6.60;99.90
34833;DHT22;55941;50.800;4.342;2022-11-30T06:12:52;6.70;99.90
34833;DHT22;55941;50.800;4.342;2022-11-30T06:15:18;6.60;99.90
34833;DHT22;55941;50.800;4.342;2022-11-30T06:17:44;6.80;99.90
34833;DHT22;55941;50.800;4.342;2022-11-30T06:20:10;6.70;99.90
34833;DHT22;55941;50.800;4.342;2022-11-30T06:22:36;6.80;99.90
34833;DHT22;55941;50.800;4.342;2022-11-30T06:25:01;6.70;99.90
34833;DHT22;55941;50.800;4.342;2022-11-30T06:27:31;6.80;99.90
34833;DHT22;55941;50.800;4.342;2022-11-30T06:29:57;6.80;99.90
34833;DHT22;55941;50.800;4.342;2022-11-30T06:32:23;6.80;99.90
34833;DHT22;55941;50.800;4.342;2022-11-30T06:34:50;6.80;99.90
34833;DHT22;55941;50.800;4.342;2022-11-30T06:37:16;6.60;99.90
34833;DHT22;55941;50.800;4.342;2022-11-30T06:39:43;6.60;99.90
34833;DHT22;55941;50.800;4.342;2022-11-30T06:42:08;6.60;99.90
34833;DHT22;55941;50.800;4.342;2022-11-30T06:44:34;6.60;99.90
34833;DHT22;55941;50.800;4.342;2022-11-30T06:46:59;6.60;99.90
34833;DHT22;55941;50.800;4.342;2022-11-30T06:49:25;6.50;99.90
34833;DHT22;55941;50.800;4.342;2022-11-30T06:51:51;6.50;99.90
34833;DHT22;55941;50.800;4.342;2022-11-30T06:54:17;6.80;99.90
34833;DHT22;55941;50.800;4.342;2022-11-30T06:56:45;6.90;99.90
34833;DHT22;55941;50.800;4.342;2022-11-30T06:59:13;6.90;99.90
34833;DHT22;55941;50.800;4.342;2022-11-30T07:01:39;6.90;99.90
34833;DHT22;55941;50.800;4.342;2022-11-30T07:04:04;6.90;99.90
34833;DHT22;55941;50.800;4.342;2022-11-30T07:06:30;6.90;99.90
34833;DHT22;55941;50.800;4.342;2022-11-30T07:08:55;6.90;99.90
34833;DHT22;55941;50.800;4.342;2022-11-30T07:11:21;6.90;99.90
34833;DHT22;55941;50.800;4.342;2022-11-30T07:13:47;7.20;99.90
34833;DHT22;55941;50.800;4.342;2022-11-30T07:16:13;7.50;99.90
34833;DHT22;55941;50.800;4.342;2022-11-30T07:18:40;7.30;99.90
34833;DHT22;55941;50.800;4.342;2022-11-30T07:21:06;7.30;99.90
34833;DHT22;55941;50.800;4.342;2022-11-30T07:23:32;7.20;99.90
34833;DHT22;55941;50.800;4.342;2022-11-30T07:26:16;7.00;99.90
34833;DHT22;55941;50.800;4.342;2022-11-30T07:28:43;7.00;99.90
34833;DHT22;55941;50.800;4.342;2022-11-30T07:31:19;7.00;99.90
34833;DHT22;55941;50.800;4.342;2022-11-30T07:33:46;7.20;99.90
34833;DHT22;55941;50.800;4.342;2022-11-30T07:36:12;7.10;99.90
34833;DHT22;55941;50.800;4.342;2022-11-30T07:38:38;7.00;99.90
34833;DHT22;55941;50.800;4.342;2022-11-30T07:41:04;6.90;99.90
34833;DHT22;55941;50.800;4.342;2022-11-30T07:43:30;6.90;99.90
34833;DHT22;55941;50.800;4.342;2022-11-30T07:45:55;7.00;99.90
34833;DHT22;55941;50.800;4.342;2022-11-30T07:48:22;6.90;99.90
34833;DHT22;55941;50.800;4.342;2022-11-30T07:50:48;7.10;99.90
34833;DHT22;55941;50.800;4.342;2022-11-30T07:53:14;7.10;99.90
34833;DHT22;55941;50.800;4.342;2022-11-30T07:55:41;7.00;99.90
34833;DHT22;55941;50.800;4.342;2022-11-30T07:58:07;7.00;99.90
34833;DHT22;55941;50.800;4.342;2022-11-30T08:00:35;7.10;99.90
34833;DHT22;55941;50.800;4.342;2022-11-30T08:03:01;7.10;99.90
34833;DHT22;55941;50.800;4.342;2022-11-30T08:05:26;7.00;99.90
34833;DHT22;55941;50.800;4.342;2022-11-30T08:07:52;7.20;99.90
34833;DHT22;55941;50.800;4.342;2022-11-30T08:10:19;7.30;99.90
34833;DHT22;55941;50.800;4.342;2022-11-30T08:12:45;7.20;99.90
34833;DHT22;55941;50.800;4.342;2022-11-30T08:15:11;7.20;99.90
34833;DHT22;55941;50.800;4.342;2022-11-30T08:17:37;7.10;99.90
34833;DHT22;55941;50.800;4.342;2022-11-30T08:20:03;7.20;99.90
34833;DHT22;55941;50.800;4.342;2022-11-30T08:22:31;7.20;99.90
34833;DHT22;55941;50.800;4.342;2022-11-30T08:24:57;7.30;99.90
34833;DHT22;55941;50.800;4.342;2022-11-30T08:27:23;7.30;99.90
34833;DHT22;55941;50.800;4.342;2022-11-30T08:29:48;7.20;99.90
34833;DHT22;55941;50.800;4.342;2022-11-30T08:32:14;7.30;99.90
34833;DHT22;55941;50.800;4.342;2022-11-30T08:34:40;7.40;99.90
34833;DHT22;55941;50.800;4.342;2022-11-30T08:37:05;7.40;99.90
34833;DHT22;55941;50.800;4.342;2022-11-30T08:39:31;7.40;99.90
34833;DHT22;55941;50.800;4.342;2022-11-30T08:42:00;7.50;99.90
34833;DHT22;55941;50.800;4.342;2022-11-30T08:44:28;7.50;99.90
34833;DHT22;55941;50.800;4.342;2022-11-30T08:46:54;7.50;99.90
34833;DHT22;55941;50.800;4.342;2022-11-30T08:49:21;7.50;99.90
34833;DHT22;55941;50.800;4.342;2022-11-30T08:51:48;7.60;99.90
34833;DHT22;55941;50.800;4.342;2022-11-30T08:54:15;7.50;99.90
34833;DHT22;55941;50.800;4.342;2022-11-30T08:56:41;7.60;99.90
34833;DHT22;55941;50.800;4.342;2022-11-30T08:59:06;7.60;99.90
34833;DHT22;55941;50.800;4.342;2022-11-30T09:01:32;7.50;99.90
34833;DHT22;55941;50.800;4.342;2022-11-30T09:03:58;7.60;99.90
34833;DHT22;55941;50.800;4.342;2022-11-30T09:06:27;7.60;99.90
34833;DHT22;55941;50.800;4.342;2022-11-30T09:08:54;7.70;99.90
34833;DHT22;55941;50.800;4.342;2022-11-30T09:11:21;7.60;99.90
34833;DHT22;55941;50.800;4.342;2022-11-30T09:13:48;7.70;99.90
34833;DHT22;55941;50.800;4.342;2022-11-30T09:16:16;7.60;99.90
34833;DHT22;55941;50.800;4.342;2022-11-30T09:18:42;7.70;99.90
34833;DHT22;55941;50.800;4.342;2022-11-30T09:21:10;7.70;99.90
34833;DHT22;55941;50.800;4.342;2022-11-30T09:23:37;7.70;99.90
34833;DHT22;55941;50.800;4.342;2022-11-30T09:26:06;7.70;99.90
34833;DHT22;55941;50.800;4.342;2022-11-30T09:28:33;7.50;99.90
34833;DHT22;55941;50.800;4.342;2022-11-30T09:31:03;7.80;99.90
34833;DHT22;55941;50.800;4.342;2022-11-30T09:33:29;8.00;99.90
34833;DHT22;55941;50.800;4.342;2022-11-30T09:36:01;8.00;99.90
34833;DHT22;55941;50.800;4.342;2022-11-30T09:38:27;7.90;99.90
34833;DHT22;55941;50.800;4.342;2022-11-30T09:40:56;8.10;99.90
34833;DHT22;55941;50.800;4.342;2022-11-30T09:43:39;8.20;99.90
34833;DHT22;55941;50.800;4.342;2022-11-30T09:46:08;8.10;99.90
34833;DHT22;55941;50.800;4.342;2022-11-30T09:49:09;8.10;99.90
34833;DHT22;55941;50.800;4.342;2022-11-30T09:51:45;8.00;99.90
34833;DHT22;55941;50.800;4.342;2022-11-30T09:54:15;7.90;99.90
34833;DHT22;55941;50.800;4.342;2022-11-30T09:56:42;7.80;99.90
34833;DHT22;55941;50.800;4.342;2022-11-30T09:59:22;7.90;99.90
34833;DHT22;55941;50.800;4.342;2022-11-30T10:01:51;8.00;99.90
34833;DHT22;55941;50.800;4.342;2022-11-30T10:04:22;8.00;99.90
34833;DHT22;55941;50.800;4.342;2022-11-30T10:10:02;8.20;99.90
34833;DHT22;55941;50.800;4.342;2022-11-30T10:12:35;8.20;99.90
34833;DHT22;55941;50.800;4.342;2022-11-30T10:15:11;8.30;99.90
34833;DHT22;55941;50.800;4.342;2022-11-30T10:17:53;8.50;99.90
34833;DHT22;55941;50.800;4.342;2022-11-30T10:20:33;8.60;99.90
34833;DHT22;55941;50.800;4.342;2022-11-30T10:25:58;8.50;99.90
34833;DHT22;55941;50.800;4.342;2022-11-30T10:31:12;7.80;99.90
34833;DHT22;55941;50.800;4.342;2022-11-30T10:33:52;8.10;99.90
34833;DHT22;55941;50.800;4.342;2022-11-30T10:36:37;8.30;99.90
34833;DHT22;55941;50.800;4.342;2022-11-30T10:39:13;8.50;99.90
34833;DHT22;55941;50.800;4.342;2022-11-30T10:41:47;8.50;99.90
34833;DHT22;55941;50.800;4.342;2022-11-30T10:44:27;8.50;99.90
34833;DHT22;55941;50.800;4.342;2022-11-30T10:47:02;8.50;99.90
34833;DHT22;55941;50.800;4.342;2022-11-30T10:49:30;8.60;99.90
34833;DHT22;55941;50.800;4.342;2022-11-30T10:52:04;8.90;99.90
34833;DHT22;55941;50.800;4.342;2022-11-30T10:54:34;8.80;99.90
34833;DHT22;55941;50.800;4.342;2022-11-30T10:57:02;8.70;99.90
34833;DHT22;55941;50.800;4.342;2022-11-30T10:59:53;8.90;99.90
34833;DHT22;55941;50.800;4.342;2022-11-30T11:02:49;9.00;99.90
34833;DHT22;55941;50.800;4.342;2022-11-30T11:12:59;9.00;99.90
34833;DHT22;55941;50.800;4.342;2022-11-30T11:15:30;9.20;99.90
34833;DHT22;55941;50.800;4.342;2022-11-30T11:18:26;9.30;99.90
34833;DHT22;55941;50.800;4.342;2022-11-30T11:21:02;9.30;99.90
34833;DHT22;55941;50.800;4.342;2022-11-30T11:23:35;9.30;99.90
34833;DHT22;55941;50.800;4.342;2022-11-30T11:26:01;9.20;99.90
34833;DHT22;55941;50.800;4.342;2022-11-30T11:28:27;9.30;99.90
34833;DHT22;55941;50.800;4.342;2022-11-30T11:30:55;9.20;99.90
34833;DHT22;55941;50.800;4.342;2022-11-30T11:33:26;9.20;99.90
34833;DHT22;55941;50.800;4.342;2022-11-30T11:36:12;9.20;99.90
34833;DHT22;55941;50.800;4.342;2022-11-30T11:38:46;9.20;99.90
34833;DHT22;55941;50.800;4.342;2022-11-30T11:41:34;9.30;99.90
34833;DHT22;55941;50.800;4.342;2022-11-30T11:46:36;9.30;99.90
34833;DHT22;55941;50.800;4.342;2022-11-30T11:49:22;9.40;99.90
34833;DHT22;55941;50.800;4.342;2022-11-30T11:52:02;9.60;99.90
34833;DHT22;55941;50.800;4.342;2022-11-30T11:54:39;9.60;99.90
34833;DHT22;55941;50.800;4.342;2022-11-30T11:57:12;9.70;99.90
34833;DHT22;55941;50.800;4.342;2022-11-30T12:00:04;9.60;99.90
34833;DHT22;55941;50.800;4.342;2022-11-30T12:02:38;9.60;99.90
34833;DHT22;55941;50.800;4.342;2022-11-30T12:05:11;9.70;99.90
34833;DHT22;55941;50.800;4.342;2022-11-30T12:07:53;9.80;99.90
34833;DHT22;55941;50.800;4.342;2022-11-30T12:13:32;10.00;99.90
34833;DHT22;55941;50.800;4.342;2022-11-30T12:16:27;9.80;99.90
34833;DHT22;55941;50.800;4.342;2022-11-30T12:19:00;9.80;99.90
34833;DHT22;55941;50.800;4.342;2022-11-30T12:24:18;9.70;99.90
34833;DHT22;55941;50.800;4.342;2022-11-30T12:27:45;9.70;99.90
34833;DHT22;55941;50.800;4.342;2022-11-30T12:35:07;9.70;99.90
34833;DHT22;55941;50.800;4.342;2022-11-30T12:40:27;10.10;99.90
34833;DHT22;55941;50.800;4.342;2022-11-30T12:53:54;10.70;99.90
34833;DHT22;55941;50.800;4.342;2022-11-30T12:56:29;10.60;99.90
34833;DHT22;55941;50.800;4.342;2022-11-30T13:04:35;10.70;99.90
34833;DHT22;55941;50.800;4.342;2022-11-30T13:07:21;10.80;99.90
34833;DHT22;55941;50.800;4.342;2022-11-30T13:09:55;10.80;99.90
34833;DHT22;55941;50.800;4.342;2022-11-30T13:12:33;10.80;99.90
34833;DHT22;55941;50.800;4.342;2022-11-30T13:15:08;10.60;99.90
34833;DHT22;55941;50.800;4.342;2022-11-30T13:17:36;10.50;99.90
34833;DHT22;55941;50.800;4.342;2022-11-30T13:22:47;10.50;99.90
34833;DHT22;55941;50.800;4.342;2022-11-30T13:27:53;10.40;99.90
34833;DHT22;55941;50.800;4.342;2022-11-30T13:30:54;10.60;99.90
34833;DHT22;55941;50.800;4.342;2022-11-30T13:33:43;10.60;99.90
34833;DHT22;55941;50.800;4.342;2022-11-30T13:36:26;10.40;99.90
34833;DHT22;55941;50.800;4.342;2022-11-30T13:39:19;10.30;99.90
34833;DHT22;55941;50.800;4.342;2022-11-30T13:44:35;10.40;99.90
34833;DHT22;55941;50.800;4.342;2022-11-30T13:47:04;10.30;99.90
34833;DHT22;55941;50.800;4.342;2022-11-30T13:49:32;10.40;99.90
34833;DHT22;55941;50.800;4.342;2022-11-30T13:52:02;10.40;99.90
34833;DHT22;55941;50.800;4.342;2022-11-30T13:54:49;10.30;99.90
34833;DHT22;55941;50.800;4.342;2022-11-30T13:59:59;10.40;99.90
34833;DHT22;55941;50.800;4.342;2022-11-30T14:08:08;10.50;99.90
34833;DHT22;55941;50.800;4.342;2022-11-30T14:10:41;10.20;99.90
34833;DHT22;55941;50.800;4.342;2022-11-30T14:23:23;10.00;99.90
34833;DHT22;55941;50.800;4.342;2022-11-30T14:25:50;9.90;99.90
34833;DHT22;55941;50.800;4.342;2022-11-30T14:31:25;10.10;99.90
34833;DHT22;55941;50.800;4.342;2022-11-30T14:33:57;10.00;99.90
34833;DHT22;55941;50.800;4.342;2022-11-30T14:36:33;9.90;99.90
34833;DHT22;55941;50.800;4.342;2022-11-30T14:38:59;9.90;99.90
34833;DHT22;55941;50.800;4.342;2022-11-30T14:41:29;9.80;99.90
34833;DHT22;55941;50.800;4.342;2022-11-30T14:44:19;9.80;99.90
34833;DHT22;55941;50.800;4.342;2022-11-30T14:46:44;9.70;99.90
34833;DHT22;55941;50.800;4.342;2022-11-30T14:49:22;9.70;99.90
34833;DHT22;55941;50.800;4.342;2022-11-30T14:52:02;9.70;99.90
34833;DHT22;55941;50.800;4.342;2022-11-30T14:57:40;9.70;99.90
34833;DHT22;55941;50.800;4.342;2022-11-30T15:00:15;9.70;99.90
34833;DHT22;55941;50.800;4.342;2022-11-30T15:02:42;9.70;99.90
34833;DHT22;55941;50.800;4.342;2022-11-30T15:05:14;9.70;99.90
34833;DHT22;55941;50.800;4.342;2022-11-30T15:07:42;9.70;99.90
34833;DHT22;55941;50.800;4.342;2022-11-30T15:10:15;9.70;99.90
34833;DHT22;55941;50.800;4.342;2022-11-30T15:12:44;9.60;99.90
34833;DHT22;55941;50.800;4.342;2022-11-30T15:17:54;9.40;99.90
34833;DHT22;55941;50.800;4.342;2022-11-30T15:20:37;9.40;99.90
34833;DHT22;55941;50.800;4.342;2022-11-30T15:23:03;9.40;99.90
34833;DHT22;55941;50.800;4.342;2022-11-30T15:25:36;9.50;99.90
34833;DHT22;55941;50.800;4.342;2022-11-30T15:28:03;9.50;99.90
34833;DHT22;55941;50.800;4.342;2022-11-30T15:30:31;9.50;99.90
34833;DHT22;55941;50.800;4.342;2022-11-30T15:32:57;9.60;99.90
34833;DHT22;55941;50.800;4.342;2022-11-30T15:35:24;9.40;99.90
34833;DHT22;55941;50.800;4.342;2022-11-30T15:37:51;9.40;99.90
34833;DHT22;55941;50.800;4.342;2022-11-30T15:40:31;9.50;99.90
34833;DHT22;55941;50.800;4.342;2022-11-30T15:42:59;9.40;99.90
34833;DHT22;55941;50.800;4.342;2022-11-30T15:45:31;9.40;99.90
34833;DHT22;55941;50.800;4.342;2022-11-30T15:47:59;9.40;99.90
34833;DHT22;55941;50.800;4.342;2022-11-30T15:53:01;9.30;99.90
34833;DHT22;55941;50.800;4.342;2022-11-30T15:55:49;9.20;99.90
34833;DHT22;55941;50.800;4.342;2022-11-30T15:58:41;9.20;99.90
34833;DHT22;55941;50.800;4.342;2022-11-30T16:06:22;8.90;99.90
34833;DHT22;55941;50.800;4.342;2022-11-30T16:08:49;8.90;99.90
34833;DHT22;55941;50.800;4.342;2022-11-30T16:11:16;8.90;99.90
34833;DHT22;55941;50.800;4.342;2022-11-30T16:13:42;8.90;99.90
34833;DHT22;55941;50.800;4.342;2022-11-30T16:16:13;8.80;99.90
34833;DHT22;55941;50.800;4.342;2022-11-30T16:18:44;8.80;99.90
34833;DHT22;55941;50.800;4.342;2022-11-30T16:21:12;8.70;99.90
34833;DHT22;55941;50.800;4.342;2022-11-30T16:23:41;8.70;99.90
34833;DHT22;55941;50.800;4.342;2022-11-30T16:26:15;8.60;99.90
34833;DHT22;55941;50.800;4.342;2022-11-30T16:28:40;8.70;99.90
34833;DHT22;55941;50.800;4.342;2022-11-30T16:31:15;8.70;99.90
34833;DHT22;55941;50.800;4.342;2022-11-30T16:33:41;8.80;99.90
34833;DHT22;55941;50.800;4.342;2022-11-30T16:36:11;8.60;99.90
34833;DHT22;55941;50.800;4.342;2022-11-30T16:38:38;8.70;99.90
34833;DHT22;55941;50.800;4.342;2022-11-30T16:43:40;8.80;99.90
34833;DHT22;55941;50.800;4.342;2022-11-30T16:46:15;8.90;99.90
34833;DHT22;55941;50.800;4.342;2022-11-30T16:48:41;8.80;99.90
34833;DHT22;55941;50.800;4.342;2022-11-30T16:51:16;8.70;99.90
34833;DHT22;55941;50.800;4.342;2022-11-30T16:53:43;8.70;99.90
34833;DHT22;55941;50.800;4.342;2022-11-30T16:56:12;8.60;99.90
34833;DHT22;55941;50.800;4.342;2022-11-30T16:58:38;8.60;99.90
34833;DHT22;55941;50.800;4.342;2022-11-30T17:01:04;8.70;99.90
34833;DHT22;55941;50.800;4.342;2022-11-30T17:03:33;8.70;99.90
34833;DHT22;55941;50.800;4.342;2022-11-30T17:06:07;8.80;99.90
34833;DHT22;55941;50.800;4.342;2022-11-30T17:08:33;8.70;99.90
34833;DHT22;55941;50.800;4.342;2022-11-30T17:10:59;8.80;99.90
34833;DHT22;55941;50.800;4.342;2022-11-30T17:13:25;8.70;99.90
34833;DHT22;55941;50.800;4.342;2022-11-30T17:15:51;8.70;99.90
34833;DHT22;55941;50.800;4.342;2022-11-30T17:18:17;8.70;99.90
34833;DHT22;55941;50.800;4.342;2022-11-30T17:20:43;8.60;99.90
34833;DHT22;55941;50.800;4.342;2022-11-30T17:23:10;8.60;99.90
34833;DHT22;55941;50.800;4.342;2022-11-30T17:25:36;8.60;99.90
34833;DHT22;55941;50.800;4.342;2022-11-30T17:28:01;8.60;99.90
34833;DHT22;55941;50.800;4.342;2022-11-30T17:30:27;8.60;99.90
34833;DHT22;55941;50.800;4.342;2022-11-30T17:32:53;8.70;99.90
34833;DHT22;55941;50.800;4.342;2022-11-30T17:35:19;8.80;99.90
34833;DHT22;55941;50.800;4.342;2022-11-30T17:37:45;8.60;99.90
34833;DHT22;55941;50.800;4.342;2022-11-30T17:40:11;8.60;99.90
34833;DHT22;55941;50.800;4.342;2022-11-30T17:42:42;8.60;99.90
34833;DHT22;55941;50.800;4.342;2022-11-30T17:45:08;8.70;99.90
34833;DHT22;55941;50.800;4.342;2022-11-30T17:47:34;8.60;99.90